createdAt,value
2023-01-21T00:02:15.948Z,6.57
2023-01-21T00:04:42.818Z,6.38
2023-01-21T00:07:09.587Z,13.45
2023-01-21T00:09:36.377Z,5.78
2023-01-21T00:12:03.744Z,5.28
2023-01-21T00:14:30.927Z,8.63
2023-01-21T00:16:58.284Z,8.18
2023-01-21T00:19:25.731Z,6.32
2023-01-21T00:21:52.511Z,5.97
2023-01-21T00:24:19.255Z,6.22
2023-01-21T00:26:46.054Z,5.15
2023-01-21T00:29:12.800Z,7.30
2023-01-21T00:31:39.719Z,6.68
2023-01-21T00:34:06.646Z,6.68
2023-01-21T00:36:33.426Z,5.25
2023-01-21T00:39:00.391Z,5.28
2023-01-21T00:41:27.284Z,5.60
2023-01-21T00:43:54.064Z,9.02
2023-01-21T00:46:20.969Z,6.90
2023-01-21T00:48:47.961Z,6.53
2023-01-21T00:51:14.801Z,9.23
2023-01-21T00:53:44.571Z,5.47
2023-01-21T00:56:12.691Z,8.27
2023-01-21T00:58:40.073Z,6.75
2023-01-21T01:01:15.007Z,6.63
2023-01-21T01:03:42.075Z,8.05
2023-01-21T01:06:16.943Z,6.45
2023-01-21T01:08:44.250Z,8.98
2023-01-21T01:11:11.456Z,4.78
2023-01-21T01:13:38.240Z,6.38
2023-01-21T01:16:05.521Z,6.18
2023-01-21T01:18:33.619Z,6.50
2023-01-21T01:21:00.667Z,6.45
2023-01-21T01:23:27.596Z,7.35
2023-01-21T01:26:05.129Z,7.20
2023-01-21T01:28:32.066Z,6.82
2023-01-21T01:30:59.172Z,5.50
2023-01-21T01:33:26.503Z,5.47
2023-01-21T01:35:53.398Z,7.18
2023-01-21T01:38:21.600Z,7.07
2023-01-21T01:40:49.334Z,6.55
2023-01-21T01:43:24.747Z,7.65
2023-01-21T01:45:51.581Z,7.03
2023-01-21T01:48:27.622Z,9.07
2023-01-21T01:50:55.726Z,8.10
2023-01-21T01:53:22.563Z,6.10
2023-01-21T01:55:49.371Z,9.10
2023-01-21T01:58:16.397Z,7.47
2023-01-21T02:00:43.197Z,8.68
2023-01-21T02:03:28.626Z,7.47
2023-01-21T02:05:55.466Z,6.45
2023-01-21T02:08:23.122Z,6.90
2023-01-21T02:10:49.898Z,5.82
2023-01-21T02:13:16.676Z,8.18
2023-01-21T02:15:58.923Z,5.85
2023-01-21T02:18:46.751Z,8.70
2023-01-21T02:21:32.437Z,7.40
2023-01-21T02:24:33.665Z,6.25
2023-01-21T02:27:15.524Z,6.25
2023-01-21T02:29:45.092Z,6.82
2023-01-21T02:32:20.695Z,6.10
2023-01-21T02:35:09.880Z,5.53
2023-01-21T02:38:08.207Z,6.88
2023-01-21T02:40:50.144Z,6.80
2023-01-21T02:43:44.942Z,8.38
2023-01-21T02:46:22.902Z,7.45
2023-01-21T02:48:56.855Z,6.80
2023-01-21T02:51:24.003Z,9.15
2023-01-21T02:53:50.764Z,6.60
2023-01-21T02:56:26.909Z,8.60
2023-01-21T02:58:59.405Z,4.53
2023-01-21T03:01:28.806Z,8.50
2023-01-21T03:04:30.863Z,7.25
2023-01-21T03:07:27.751Z,10.13
2023-01-21T03:09:57.051Z,6.05
2023-01-21T03:12:38.922Z,7.65
2023-01-21T03:15:30.865Z,6.78
2023-01-21T03:18:18.433Z,4.97
2023-01-21T03:20:47.887Z,7.43
2023-01-21T03:23:32.700Z,8.32
2023-01-21T03:25:59.633Z,8.73
2023-01-21T03:28:27.528Z,6.40
2023-01-21T03:30:57.764Z,5.97
2023-01-21T03:33:24.635Z,6.63
2023-01-21T03:35:51.516Z,6.30
2023-01-21T03:38:31.389Z,9.32
2023-01-21T03:41:12.476Z,10.68
2023-01-21T03:43:39.296Z,5.50
2023-01-21T03:46:21.910Z,8.85
2023-01-21T03:48:49.511Z,8.20
2023-01-21T03:51:20.057Z,7.88
2023-01-21T03:53:51.186Z,9.65
2023-01-21T03:56:17.946Z,7.13
2023-01-21T03:58:44.846Z,8.05
2023-01-21T04:01:11.892Z,10.43
2023-01-21T04:03:40.855Z,10.00
2023-01-21T04:06:08.840Z,8.68
2023-01-21T04:08:35.588Z,6.15
2023-01-21T04:11:02.514Z,7.95
2023-01-21T04:13:29.290Z,8.35
2023-01-21T04:15:56.130Z,8.02
2023-01-21T04:18:25.450Z,5.13
2023-01-21T04:20:52.433Z,7.22
2023-01-21T04:23:19.414Z,6.75
2023-01-21T04:25:49.933Z,6.78
2023-01-21T04:28:16.912Z,6.82
2023-01-21T04:30:43.789Z,7.50
2023-01-21T04:33:10.657Z,7.13
2023-01-21T04:35:37.852Z,6.63
2023-01-21T04:38:04.701Z,5.65
2023-01-21T04:40:31.569Z,8.32
2023-01-21T04:42:58.379Z,8.68
2023-01-21T04:45:25.251Z,9.45
2023-01-21T04:47:52.255Z,5.57
2023-01-21T04:50:19.363Z,7.40
2023-01-21T04:52:46.540Z,8.85
2023-01-21T04:55:13.394Z,8.13
2023-01-21T04:57:40.345Z,9.02
2023-01-21T05:00:08.536Z,8.13
2023-01-21T05:02:35.459Z,6.90
2023-01-21T05:05:02.496Z,6.65
2023-01-21T05:07:29.263Z,6.10
2023-01-21T05:09:56.168Z,7.28
2023-01-21T05:12:22.910Z,7.30
2023-01-21T05:14:57.769Z,6.90
2023-01-21T05:17:27.151Z,7.38
2023-01-21T05:19:54.095Z,6.70
2023-01-21T05:22:20.849Z,6.00
2023-01-21T05:24:53.688Z,5.57
2023-01-21T05:27:27.728Z,6.35
2023-01-21T05:30:04.124Z,5.82
2023-01-21T05:32:40.903Z,5.38
2023-01-21T05:35:08.248Z,6.22
2023-01-21T05:37:35.096Z,7.53
2023-01-21T05:40:01.883Z,8.05
2023-01-21T05:42:28.718Z,6.15
2023-01-21T05:44:55.469Z,8.27
2023-01-21T05:47:22.232Z,7.30
2023-01-21T05:49:48.970Z,5.43
2023-01-21T05:52:15.767Z,5.72
2023-01-21T05:54:59.910Z,9.20
2023-01-21T05:57:28.146Z,6.18
2023-01-21T05:59:54.956Z,8.48
2023-01-21T06:02:21.775Z,8.23
2023-01-21T06:04:48.533Z,6.00
2023-01-21T06:07:15.335Z,8.43
2023-01-21T06:09:42.139Z,9.75
2023-01-21T06:12:08.936Z,6.38
2023-01-21T06:14:35.808Z,8.18
2023-01-21T06:17:02.776Z,6.70
2023-01-21T06:19:29.588Z,7.18
2023-01-21T06:21:56.411Z,7.75
2023-01-21T06:24:23.276Z,10.07
2023-01-21T06:26:50.016Z,7.97
2023-01-21T06:29:16.857Z,6.95
2023-01-21T06:31:43.778Z,7.22
2023-01-21T06:34:12.631Z,7.57
2023-01-21T06:36:42.537Z,11.20
2023-01-21T06:39:12.231Z,7.82
2023-01-21T06:41:39.206Z,8.02
2023-01-21T06:44:06.450Z,9.48
2023-01-21T06:46:33.287Z,10.07
2023-01-21T06:49:00.223Z,12.73
2023-01-21T06:51:27.115Z,8.75
2023-01-21T06:53:54.003Z,9.07
2023-01-21T06:56:21.683Z,10.38
2023-01-21T06:58:48.541Z,7.32
2023-01-21T07:01:15.415Z,7.93
2023-01-21T07:03:43.351Z,7.45
2023-01-21T07:06:10.283Z,7.43
2023-01-21T07:08:37.107Z,7.25
2023-01-21T07:11:04.263Z,8.07
2023-01-21T07:13:31.126Z,9.05
2023-01-21T07:16:01.582Z,6.97
2023-01-21T07:18:28.730Z,7.53
2023-01-21T07:20:55.827Z,8.38
2023-01-21T07:23:22.694Z,9.93
2023-01-21T07:25:49.504Z,9.35
2023-01-21T07:28:16.447Z,7.30
2023-01-21T07:30:43.245Z,8.52
2023-01-21T07:33:10.320Z,8.02
2023-01-21T07:35:37.135Z,7.93
2023-01-21T07:38:03.899Z,8.90
2023-01-21T07:40:30.691Z,8.77
2023-01-21T07:42:57.516Z,8.98
2023-01-21T07:45:24.392Z,8.05
2023-01-21T07:47:51.247Z,7.30
2023-01-21T07:50:18.161Z,9.35
2023-01-21T07:52:44.955Z,8.30
2023-01-21T07:55:12.821Z,6.90
2023-01-21T07:57:39.811Z,7.50
2023-01-21T08:00:07.137Z,8.95
2023-01-21T08:02:38.651Z,11.18
2023-01-21T08:05:06.647Z,9.15
2023-01-21T08:07:33.476Z,8.77
2023-01-21T08:10:00.249Z,9.20
2023-01-21T08:12:27.395Z,9.43
2023-01-21T08:14:54.357Z,8.70
2023-01-21T08:17:21.169Z,10.35
2023-01-21T08:19:47.966Z,8.10
2023-01-21T08:22:14.880Z,10.15
2023-01-21T08:24:41.651Z,10.35
2023-01-21T08:27:08.417Z,7.57
2023-01-21T08:29:35.170Z,10.27
2023-01-21T08:32:02.112Z,13.25
2023-01-21T08:34:28.932Z,10.13
2023-01-21T08:36:55.663Z,10.02
2023-01-21T08:39:22.425Z,11.45
2023-01-21T08:41:49.212Z,10.32
2023-01-21T08:44:16.010Z,8.55
2023-01-21T08:46:42.860Z,9.30
2023-01-21T08:49:09.661Z,7.90
2023-01-21T08:51:36.497Z,9.13
2023-01-21T08:54:06.727Z,11.18
2023-01-21T08:56:33.620Z,9.07
2023-01-21T08:59:00.543Z,10.20
2023-01-21T09:01:27.356Z,11.00
2023-01-21T09:03:55.894Z,11.20
2023-01-21T09:06:22.881Z,13.40
2023-01-21T09:08:49.693Z,11.82
2023-01-21T09:11:16.719Z,14.63
2023-01-21T09:13:46.441Z,11.43
2023-01-21T09:16:15.363Z,14.02
2023-01-21T09:18:42.429Z,17.38
2023-01-21T09:21:09.326Z,14.40
2023-01-21T09:23:36.705Z,14.50
2023-01-21T09:26:03.872Z,15.45
2023-01-21T09:28:31.372Z,14.88
2023-01-21T09:30:59.193Z,13.02
2023-01-21T09:33:26.978Z,12.15
2023-01-21T09:35:57.757Z,15.93
2023-01-21T09:38:25.020Z,18.23
2023-01-21T09:40:51.964Z,14.88
2023-01-21T09:43:27.551Z,14.45
2023-01-21T09:45:56.248Z,19.80
2023-01-21T09:48:29.466Z,21.90
2023-01-21T09:50:56.842Z,19.75
2023-01-21T09:53:32.654Z,17.50
2023-01-21T09:56:01.097Z,19.98
2023-01-21T09:58:35.749Z,18.08
2023-01-21T10:01:32.080Z,20.55
2023-01-21T10:04:01.625Z,17.38
2023-01-21T10:07:07.063Z,17.15
2023-01-21T10:10:07.589Z,15.27
2023-01-21T10:13:14.244Z,17.17
2023-01-21T10:15:46.785Z,18.10
2023-01-21T10:18:21.441Z,16.05
2023-01-21T10:20:56.569Z,14.90
2023-01-21T10:23:43.938Z,17.05
2023-01-21T10:26:12.423Z,16.80
2023-01-21T10:28:43.189Z,17.92
2023-01-21T10:31:24.300Z,16.75
2023-01-21T10:33:51.235Z,20.42
2023-01-21T10:36:57.506Z,18.08
2023-01-21T10:39:36.573Z,17.05
2023-01-21T10:42:21.396Z,19.00
2023-01-21T10:45:08.185Z,16.15
2023-01-21T10:47:59.335Z,17.05
2023-01-21T10:50:40.729Z,15.98
2023-01-21T10:53:41.267Z,18.23
2023-01-21T10:56:19.424Z,16.25
2023-01-21T10:58:52.672Z,14.82
2023-01-21T11:01:30.004Z,16.55
2023-01-21T11:04:03.552Z,16.48
2023-01-21T11:06:32.308Z,15.35
2023-01-21T11:09:02.591Z,13.85
2023-01-21T11:11:34.570Z,13.23
2023-01-21T11:14:01.518Z,14.18
2023-01-21T11:16:46.691Z,14.63
2023-01-21T11:19:18.187Z,17.13
2023-01-21T11:22:01.037Z,17.27
2023-01-21T11:24:28.262Z,16.40
2023-01-21T11:26:56.823Z,14.88
2023-01-21T11:29:24.407Z,16.75
2023-01-21T11:32:18.642Z,15.38
2023-01-21T11:37:24.953Z,13.55
2023-01-21T11:39:59.296Z,15.73
2023-01-21T11:42:26.314Z,16.55
2023-01-21T11:44:57.950Z,13.45
2023-01-21T11:47:48.063Z,15.98
2023-01-21T11:50:26.379Z,16.92
2023-01-21T11:53:11.258Z,14.65
2023-01-21T11:55:51.857Z,13.40
2023-01-21T11:58:32.296Z,13.70
2023-01-21T12:01:00.630Z,16.17
2023-01-21T12:03:57.447Z,13.73
2023-01-21T12:06:27.291Z,15.38
2023-01-21T12:08:56.111Z,14.02
2023-01-21T12:11:24.946Z,13.93
2023-01-21T12:14:30.096Z,14.30
2023-01-21T12:17:01.456Z,13.27
2023-01-21T12:19:54.295Z,12.93
2023-01-21T12:22:44.630Z,13.80
2023-01-21T12:25:17.545Z,14.82
2023-01-21T12:27:55.503Z,12.57
2023-01-21T12:30:31.735Z,11.93
2023-01-21T12:33:19.846Z,11.52
2023-01-21T12:35:49.460Z,13.70
2023-01-21T12:38:18.924Z,12.13
2023-01-21T12:41:23.813Z,11.25
2023-01-21T12:43:52.805Z,11.55
2023-01-21T12:46:25.010Z,15.60
2023-01-21T12:48:52.472Z,12.55
2023-01-21T12:51:29.432Z,12.48
2023-01-21T12:54:04.643Z,9.90
2023-01-21T12:56:40.518Z,10.57
2023-01-21T12:59:29.909Z,14.63
2023-01-21T13:02:05.712Z,10.38
2023-01-21T13:04:56.539Z,15.38
2023-01-21T13:07:47.500Z,7.97
2023-01-21T13:10:15.771Z,9.65
2023-01-21T13:12:43.837Z,8.23
2023-01-21T13:15:14.883Z,11.57
2023-01-21T13:17:43.080Z,9.55
2023-01-21T13:20:20.168Z,9.82
2023-01-21T13:23:16.597Z,10.65
2023-01-21T13:26:10.972Z,10.80
2023-01-21T13:28:52.975Z,11.43
2023-01-21T13:31:34.976Z,8.88
2023-01-21T13:34:08.173Z,9.50
2023-01-21T13:36:35.299Z,10.98
2023-01-21T13:39:20.835Z,10.77
2023-01-21T13:42:03.642Z,8.13
2023-01-21T13:44:54.649Z,8.30
2023-01-21T13:48:03.365Z,8.20
2023-01-21T13:50:46.462Z,6.85
2023-01-21T13:53:35.044Z,6.45
2023-01-21T13:56:39.085Z,6.88
2023-01-21T13:59:31.674Z,8.95
2023-01-21T14:02:19.484Z,6.68
2023-01-21T14:04:51.079Z,6.68
2023-01-21T14:07:37.816Z,6.70
2023-01-21T14:10:21.124Z,9.93
2023-01-21T14:13:22.284Z,6.05
2023-01-21T14:16:07.964Z,7.00
2023-01-21T14:19:05.513Z,7.18
2023-01-21T14:21:41.275Z,9.00
2023-01-21T14:24:45.872Z,6.55
2023-01-21T14:27:21.590Z,8.93
2023-01-21T14:29:59.088Z,6.63
2023-01-21T14:32:36.771Z,9.02
2023-01-21T14:35:13.859Z,5.38
2023-01-21T14:38:03.132Z,6.47
2023-01-21T14:40:34.004Z,7.13
2023-01-21T14:43:00.897Z,7.53
2023-01-21T14:45:49.636Z,7.38
2023-01-21T14:48:28.335Z,8.38
2023-01-21T14:50:55.763Z,9.15
2023-01-21T14:53:25.059Z,7.03
2023-01-21T14:56:20.117Z,9.35
2023-01-21T14:58:48.124Z,7.32
2023-01-21T15:01:31.618Z,6.65
2023-01-21T15:04:04.352Z,6.45
2023-01-21T15:06:31.210Z,7.17
2023-01-21T15:08:59.290Z,9.73
2023-01-21T15:11:36.070Z,7.00
2023-01-21T15:14:23.806Z,8.88
2023-01-21T15:16:51.234Z,7.25
2023-01-21T15:19:47.168Z,8.10
2023-01-21T15:22:19.119Z,5.75
2023-01-21T15:25:03.390Z,7.50
2023-01-21T15:27:31.845Z,6.30
2023-01-21T15:29:58.923Z,6.95
2023-01-21T15:32:35.046Z,7.28
2023-01-21T15:35:04.617Z,7.90
2023-01-21T15:37:33.405Z,8.20
2023-01-21T15:40:02.219Z,9.98
2023-01-21T15:42:48.726Z,8.52
2023-01-21T15:45:30.263Z,6.30
2023-01-21T15:48:40.941Z,5.97
2023-01-21T15:51:46.896Z,8.13
2023-01-21T15:54:25.600Z,9.90
2023-01-21T15:57:34.033Z,7.05
2023-01-21T16:00:07.565Z,7.90
2023-01-21T16:02:54.464Z,10.32
2023-01-21T16:05:29.840Z,13.93
2023-01-21T16:08:26.326Z,10.13
2023-01-21T16:11:17.286Z,10.50
2023-01-21T16:14:19.506Z,12.80
2023-01-21T16:16:54.964Z,9.15
2023-01-21T16:19:25.979Z,8.57
2023-01-21T16:21:55.015Z,9.60
2023-01-21T16:24:24.861Z,10.10
2023-01-21T16:26:51.748Z,12.43
2023-01-21T16:29:18.517Z,7.28
2023-01-21T16:31:47.134Z,6.80
2023-01-21T16:34:14.071Z,7.35
2023-01-21T16:36:40.946Z,9.10
2023-01-21T16:39:07.937Z,9.50
2023-01-21T16:41:34.711Z,8.77
2023-01-21T16:44:04.890Z,10.73
2023-01-21T16:46:37.548Z,10.00
2023-01-21T16:49:12.251Z,8.40
2023-01-21T16:51:40.572Z,8.15
2023-01-21T16:54:19.608Z,7.00
2023-01-21T16:56:55.681Z,8.35
2023-01-21T16:59:44.598Z,9.57
2023-01-21T17:02:37.743Z,9.98
2023-01-21T17:05:05.273Z,9.93
2023-01-21T17:07:43.837Z,8.73
2023-01-21T17:10:34.787Z,10.80
2023-01-21T17:13:13.942Z,9.95
2023-01-21T17:15:41.787Z,12.60
2023-01-21T17:18:32.856Z,11.20
2023-01-21T17:21:10.624Z,12.57
2023-01-21T17:23:46.811Z,10.57
2023-01-21T17:26:25.681Z,14.30
2023-01-21T17:29:07.740Z,11.27
2023-01-21T17:31:42.347Z,9.18
2023-01-21T17:34:15.491Z,15.25
2023-01-21T17:36:43.944Z,13.55
2023-01-21T17:39:10.995Z,12.20
2023-01-21T17:41:41.025Z,12.88
2023-01-21T17:44:21.805Z,11.35
2023-01-21T17:46:52.773Z,12.02
2023-01-21T17:49:23.853Z,13.68
2023-01-21T17:51:51.499Z,18.25
2023-01-21T17:54:29.255Z,13.15
2023-01-21T17:56:59.592Z,14.20
2023-01-21T17:59:37.759Z,13.35
2023-01-21T18:02:06.423Z,13.77
2023-01-21T18:04:33.161Z,14.55
2023-01-21T18:06:59.996Z,14.13
2023-01-21T18:09:28.252Z,14.55
2023-01-21T18:11:56.283Z,13.65
2023-01-21T18:14:24.491Z,12.50
2023-01-21T18:16:53.383Z,14.55
2023-01-21T18:19:27.418Z,14.50
2023-01-21T18:21:54.498Z,17.55
2023-01-21T18:24:21.493Z,17.52
2023-01-21T18:26:48.439Z,13.57
2023-01-21T18:29:17.159Z,18.13
2023-01-21T18:31:44.233Z,18.25
2023-01-21T18:34:11.335Z,13.63
2023-01-21T18:36:39.323Z,15.13
2023-01-21T18:39:15.434Z,14.00
2023-01-21T18:41:42.304Z,14.30
2023-01-21T18:44:09.071Z,14.65
2023-01-21T18:46:41.421Z,15.52
2023-01-21T18:49:16.367Z,18.60
2023-01-21T18:51:43.663Z,19.25
2023-01-21T18:54:11.058Z,28.63
2023-01-21T18:56:37.873Z,17.05
2023-01-21T18:59:13.757Z,23.05
2023-01-21T19:01:41.389Z,24.55
2023-01-21T19:04:09.788Z,19.25
2023-01-21T19:06:36.749Z,20.23
2023-01-21T19:09:03.883Z,20.70
2023-01-21T19:11:30.679Z,23.23
2023-01-21T19:13:57.417Z,20.70
2023-01-21T19:16:24.232Z,23.10
2023-01-21T19:18:51.043Z,22.42
2023-01-21T19:21:17.892Z,24.02
2023-01-21T19:23:44.747Z,25.38
2023-01-21T19:26:13.733Z,23.30
2023-01-21T19:28:40.613Z,26.30
2023-01-21T19:31:07.487Z,23.15
2023-01-21T19:33:34.406Z,27.77
2023-01-21T19:36:10.472Z,25.70
2023-01-21T19:38:37.224Z,25.90
2023-01-21T19:41:05.454Z,26.77
2023-01-21T19:43:32.524Z,29.55
2023-01-21T19:45:59.355Z,26.90
2023-01-21T19:48:27.334Z,28.15
2023-01-21T19:50:54.156Z,28.45
2023-01-21T19:53:22.243Z,33.58
2023-01-21T19:55:51.731Z,31.10
2023-01-21T19:58:20.159Z,29.67
2023-01-21T20:00:49.126Z,29.88
2023-01-21T20:03:20.198Z,28.48
2023-01-21T20:05:48.196Z,31.60
2023-01-21T20:08:26.061Z,28.40
2023-01-21T20:10:52.854Z,26.85
2023-01-21T20:13:19.835Z,29.70
2023-01-21T20:15:47.283Z,26.15
2023-01-21T20:18:24.585Z,26.02
2023-01-21T20:20:52.131Z,29.38
2023-01-21T20:23:19.480Z,25.52
2023-01-21T20:25:48.219Z,25.60
2023-01-21T20:28:18.360Z,33.17
2023-01-21T20:30:45.333Z,27.83
2023-01-21T20:33:14.073Z,29.27
2023-01-21T20:35:40.831Z,32.30
2023-01-21T20:38:12.395Z,30.25
2023-01-21T20:40:39.218Z,27.55
2023-01-21T20:43:06.038Z,32.63
2023-01-21T20:45:35.658Z,25.63
2023-01-21T20:48:02.618Z,29.52
2023-01-21T20:50:33.542Z,31.38
2023-01-21T20:53:00.332Z,28.35
2023-01-21T20:55:27.725Z,24.27
2023-01-21T20:57:54.595Z,26.58
2023-01-21T21:00:26.777Z,29.15
2023-01-21T21:02:55.760Z,29.75
2023-01-21T21:05:23.871Z,26.63
2023-01-21T21:07:50.809Z,28.70
2023-01-21T21:10:22.671Z,25.00
2023-01-21T21:12:49.688Z,28.10
2023-01-21T21:15:17.063Z,26.85
2023-01-21T21:17:44.716Z,28.73
2023-01-21T21:20:19.817Z,27.15
2023-01-21T21:22:47.077Z,23.00
2023-01-21T21:25:18.473Z,27.02
2023-01-21T21:27:45.869Z,26.75
2023-01-21T21:30:16.278Z,27.58
2023-01-21T21:32:43.085Z,30.58
2023-01-21T21:35:26.075Z,29.00
2023-01-21T21:37:53.518Z,28.70
2023-01-21T21:40:38.394Z,27.50
2023-01-21T21:43:23.841Z,32.05
2023-01-21T21:46:09.158Z,29.48
2023-01-21T21:48:38.722Z,35.53
2023-01-21T21:51:06.815Z,33.25
2023-01-21T21:53:33.686Z,34.35
2023-01-21T21:56:06.026Z,32.25
2023-01-21T21:58:32.950Z,28.38
2023-01-21T22:01:19.557Z,28.75
2023-01-21T22:03:46.886Z,27.98
2023-01-21T22:06:13.777Z,28.75
2023-01-21T22:08:42.085Z,31.77
2023-01-21T22:11:10.372Z,31.20
2023-01-21T22:13:38.268Z,30.30
2023-01-21T22:16:05.465Z,29.80
2023-01-21T22:18:33.839Z,32.85
2023-01-21T22:21:23.409Z,35.88
2023-01-21T22:23:50.351Z,36.45
2023-01-21T22:26:19.542Z,30.25
2023-01-21T22:28:46.611Z,32.10
2023-01-21T22:31:17.235Z,28.40
2023-01-21T22:33:44.206Z,28.85
2023-01-21T22:36:15.844Z,22.08
2023-01-21T22:38:42.807Z,25.88
2023-01-21T22:41:10.427Z,25.52
2023-01-21T22:43:38.678Z,26.75
2023-01-21T22:46:05.610Z,26.40
2023-01-21T22:48:32.524Z,24.60
2023-01-21T22:50:59.989Z,23.42
2023-01-21T22:53:27.218Z,25.92
2023-01-21T22:56:01.289Z,26.75
2023-01-21T22:58:28.809Z,26.50
2023-01-21T23:00:55.937Z,25.85
2023-01-21T23:03:23.251Z,24.27
2023-01-21T23:05:50.237Z,21.60
2023-01-21T23:08:17.443Z,24.55
2023-01-21T23:10:44.741Z,22.77
2023-01-21T23:13:14.992Z,30.65
2023-01-21T23:15:45.864Z,27.63
2023-01-21T23:18:13.556Z,27.65
2023-01-21T23:20:42.006Z,27.40
2023-01-21T23:23:11.677Z,26.17
2023-01-21T23:25:42.243Z,23.55
2023-01-21T23:28:09.377Z,24.45
2023-01-21T23:30:37.408Z,24.98
2023-01-21T23:33:04.270Z,27.88
2023-01-21T23:35:31.966Z,25.13
2023-01-21T23:38:00.397Z,23.95
2023-01-21T23:40:27.122Z,28.85
2023-01-21T23:42:54.034Z,26.20
2023-01-21T23:45:20.791Z,24.50
2023-01-21T23:47:47.647Z,24.55
2023-01-21T23:50:14.605Z,26.63
2023-01-21T23:52:41.479Z,24.88
2023-01-21T23:55:09.146Z,27.83
2023-01-21T23:57:36.053Z,26.33
